Time;durP1;ratioP1;P1;durP2;ratioP2;P2;SDS_P1;SDS_P2;PMS_P1;PMS_P2;Temp;Humidity;BMP_temperature;BMP_pressure;BME280_temperature;BME280_humidity;BME280_pressure;Samples;Min_cycle;Max_cycle;Signal;HPM_P1;HPM_P2
2022/08/10 10:00:47;;;;;;;;;;;;;;;28.32;44.14;99482.47;5776761;22;1488;-67
2022/08/10 10:03:24;;;;;;;;;;;;;;;28.25;43.96;99500.88;5031135;28;958;-65
2022/08/10 10:06:00;;;;;;;;;;;;;;;28.44;43.69;99508.66;5031105;28;851;-64
2022/08/10 10:08:31;;;;;;;;;;;;;;;28.29;43.21;99490.00;5031001;28;1910;-66
2022/08/10 10:11:06;;;;;;;;;;;;;;;28.15;43.75;99502.53;5031050;28;831;-65
2022/08/10 10:16:54;;;;;;;;;;;;;;;28.66;43.08;99494.22;5031268;28;630;-64
2022/08/10 10:19:42;;;;;;;;;;;;;;;28.61;43.05;99506.41;5030913;28;851;-67
2022/08/10 10:34:38;;;;;;;;;;;;;;;29.24;41.33;99498.63;5034692;28;685;-67
2022/08/10 10:37:05;;;;;;;;;;;;;;;29.14;41.56;99508.09;5034355;28;832;-67
2022/08/10 10:39:32;;;;;;;;;;;;;;;28.81;42.31;99521.47;5034268;28;885;-67
2022/08/10 10:42:11;;;;;;;;;;;;;;;28.67;42.45;99507.13;5034295;28;867;-66
2022/08/10 10:44:44;;;;;;;;;;;;;;;28.81;42.57;99510.84;5034510;28;911;-63
2022/08/10 10:47:36;;;;;;;;;;;;;;;29.13;41.27;99495.97;5034131;28;1949;-67
2022/08/10 10:50:11;;;;;;;;;;;;;;;29.20;41.61;99495.31;5010985;28;1172;-65
2022/08/10 10:52:42;;;;;;;;;;;;;;;29.49;40.57;99496.44;5034831;28;851;-68
2022/08/10 10:55:26;;;;;;;;;;;;;;;29.61;40.62;99497.00;5034083;28;918;-67
2022/08/10 10:58:14;;;;;;;;;;;;;;;29.72;40.11;99493.22;5033974;28;1219;-66
2022/08/10 11:00:48;;;;;;;;;;;;;;;29.89;39.93;99490.88;5005522;28;1145;-67
2022/08/10 11:03:26;;;;;;;;;;;;;;;29.99;39.04;99496.91;5033857;28;895;-68
2022/08/10 11:06:00;;;;;;;;;;;;;;;29.97;39.30;99493.81;5032563;28;1183;-64
2022/08/10 11:08:29;;;;;;;;;;;;;;;30.42;38.05;99477.97;5034042;28;1914;-68
2022/08/10 11:11:00;;;;;;;;;;;;;;;30.44;38.03;99483.91;5033785;28;855;-66
2022/08/10 11:13:26;;;;;;;;;;;;;;;30.67;37.90;99495.59;5033679;28;856;-67
2022/08/10 11:15:55;;;;;;;;;;;;;;;30.90;38.30;99490.22;5033620;28;939;-65
2022/08/10 11:18:26;;;;;;;;;;;;;;;30.89;37.38;99485.81;5033855;28;804;-67
2022/08/10 11:21:10;;;;;;;;;;;;;;;30.42;38.16;99484.44;5033506;28;847;-67
2022/08/10 11:23:36;;;;;;;;;;;;;;;30.62;37.53;99483.00;5032204;28;1183;-65
2022/08/10 11:26:08;;;;;;;;;;;;;;;31.25;37.48;99493.81;5032143;28;1302;-67
2022/08/10 11:28:40;;;;;;;;;;;;;;;31.18;36.77;99483.09;5031952;28;1910;-69
2022/08/10 11:31:16;;;;;;;;;;;;;;;31.00;37.46;99484.78;5033288;28;847;-69
2022/08/10 11:33:41;;;;;;;;;;;;;;;31.10;37.63;99486.63;5033240;28;1263;-68
2022/08/10 11:36:20;;;;;;;;;;;;;;;31.38;36.34;99487.28;5033214;28;816;-70
2022/08/10 11:38:53;;;;;;;;;;;;;;;31.79;36.09;99497.97;5033165;28;883;-67
2022/08/10 11:41:38;;;;;;;;;;;;;;;31.66;34.85;99500.91;5033174;28;819;-70
2022/08/10 11:44:10;;;;;;;;;;;;;;;31.37;35.73;99489.38;5031798;28;1215;-68
2022/08/10 11:46:56;;;;;;;;;;;;;;;31.74;34.85;99478.88;5033028;28;853;-66
2022/08/10 11:49:30;;;;;;;;;;;;;;;31.73;35.29;99494.50;5032405;28;1061;-67
2022/08/10 11:52:11;;;;;;;;;;;;;;;31.92;35.61;99492.19;5031630;28;1374;-67
2022/08/10 11:54:42;;;;;;;;;;;;;;;31.72;35.46;99487.25;5032947;28;862;-65
2022/08/10 11:57:10;;;;;;;;;;;;;;;32.05;35.28;99494.22;5032807;28;812;-66
2022/08/10 12:02:21;;;;;;;;;;;;;;;32.05;35.38;99479.91;5032553;28;1225;-68
2022/08/10 12:04:50;;;;;;;;;;;;;;;31.98;34.71;99474.91;5032778;28;824;-70
2022/08/10 12:07:17;;;;;;;;;;;;;;;32.05;35.06;99493.41;5032724;28;1961;-69
2022/08/10 12:09:43;;;;;;;;;;;;;;;32.57;34.01;99488.63;5031301;28;1200;-69
2022/08/10 12:12:12;;;;;;;;;;;;;;;32.44;33.80;99505.88;5032765;28;824;-69
2022/08/10 12:15:07;;;;;;;;;;;;;;;32.26;33.78;99491.31;5032557;28;882;-70
2022/08/10 12:17:44;;;;;;;;;;;;;;;32.14;34.23;99490.84;5010394;28;1007;-68
2022/08/10 12:20:15;;;;;;;;;;;;;;;32.54;33.26;99484.03;5032457;28;906;-65
2022/08/10 12:22:47;;;;;;;;;;;;;;;32.73;32.88;99480.88;5032345;28;863;-70
2022/08/10 12:25:20;;;;;;;;;;;;;;;32.74;32.71;99476.69;5032440;28;872;-67
2022/08/10 12:27:50;;;;;;;;;;;;;;;33.36;32.29;99491.97;5031032;28;1933;-65
2022/08/10 12:30:16;;;;;;;;;;;;;;;33.76;31.62;99471.41;5032181;28;820;-67
2022/08/10 12:32:48;;;;;;;;;;;;;;;33.46;31.52;99460.66;5031173;28;1220;-67
2022/08/10 12:35:20;;;;;;;;;;;;;;;33.59;31.50;99466.19;5030854;28;1373;-71
2022/08/10 12:38:04;;;;;;;;;;;;;;;33.58;31.26;99464.66;5032053;28;820;-69
2022/08/10 12:40:42;;;;;;;;;;;;;;;33.25;31.70;99478.78;5030827;28;1195;-67
2022/08/10 12:43:15;;;;;;;;;;;;;;;32.89;31.77;99478.84;5031954;28;851;-69
2022/08/10 12:45:48;;;;;;;;;;;;;;;32.99;31.95;99479.84;5032390;28;804;-67
2022/08/10 12:48:28;;;;;;;;;;;;;;;33.06;31.59;99481.94;5031721;28;1992;-68
2022/08/10 12:50:54;;;;;;;;;;;;;;;32.86;31.89;99486.47;5031585;28;858;-69
2022/08/10 12:53:32;;;;;;;;;;;;;;;33.01;31.64;99476.38;5030712;28;1180;-69
2022/08/10 12:56:00;;;;;;;;;;;;;;;33.02;31.72;99470.09;5030355;28;1290;-70
2022/08/10 12:58:28;;;;;;;;;;;;;;;33.03;31.52;99483.09;5029960;28;1221;-67
2022/08/10 13:00:55;;;;;;;;;;;;;;;33.17;31.46;99474.38;5032586;28;1439;-67
2022/08/10 13:03:23;;;;;;;;;;;;;;;33.29;30.78;99466.94;5051290;28;1001;-69
2022/08/10 13:05:50;;;;;;;;;;;;;;;33.28;31.34;99456.81;5051599;28;832;-68
2022/08/10 13:11:04;;;;;;;;;;;;;;;33.10;31.61;99470.91;5051483;28;639;-68
2022/08/10 13:13:35;;;;;;;;;;;;;;;33.09;31.57;99457.16;5033529;28;1220;-66
2022/08/10 13:16:02;;;;;;;;;;;;;;;33.02;31.42;99467.22;5051337;28;855;-68
2022/08/10 13:18:33;;;;;;;;;;;;;;;32.76;31.59;99462.59;5051373;28;867;-70
2022/08/10 13:21:11;;;;;;;;;;;;;;;32.47;31.66;99461.84;5033664;28;1102;-67
2022/08/10 13:23:54;;;;;;;;;;;;;;;33.03;31.83;99454.47;5033787;28;1196;-68
2022/08/10 13:26:24;;;;;;;;;;;;;;;33.59;30.68;99445.41;5051220;28;812;-68
2022/08/10 13:28:54;;;;;;;;;;;;;;;33.52;30.78;99449.75;5051190;28;1987;-67
2022/08/10 13:31:22;;;;;;;;;;;;;;;33.29;30.69;99447.66;5051457;28;848;-69
2022/08/10 13:34:08;;;;;;;;;;;;;;;32.45;31.61;99444.50;5051193;28;876;-70
2022/08/10 13:36:39;;;;;;;;;;;;;;;32.09;32.63;99445.25;5050776;28;1048;-67
2022/08/10 13:39:08;;;;;;;;;;;;;;;32.40;31.92;99439.72;5033244;28;1478;-68
2022/08/10 13:41:41;;;;;;;;;;;;;;;32.80;31.30;99437.22;5051167;28;902;-69
2022/08/10 13:44:08;;;;;;;;;;;;;;;32.82;30.81;99445.22;5051242;28;907;-68
2022/08/10 13:46:39;;;;;;;;;;;;;;;33.04;31.11;99438.81;5051333;28;839;-70
2022/08/10 13:49:09;;;;;;;;;;;;;;;33.18;31.10;99436.59;5051119;28;1898;-71
2022/08/10 13:51:37;;;;;;;;;;;;;;;32.68;31.30;99424.59;5051130;28;831;-66
2022/08/10 13:54:05;;;;;;;;;;;;;;;32.10;32.08;99438.22;5051104;28;1032;-70
2022/08/10 13:56:31;;;;;;;;;;;;;;;31.77;32.66;99423.47;5050867;28;874;-69
2022/08/10 13:58:58;;;;;;;;;;;;;;;31.86;32.76;99445.09;5033243;28;1153;-70
2022/08/10 14:01:31;;;;;;;;;;;;;;;31.61;32.79;99419.75;5053353;28;1256;-69
2022/08/10 14:04:00;;;;;;;;;;;;;;;31.59;32.87;99416.69;5020987;28;1335;-71
2022/08/10 14:06:27;;;;;;;;;;;;;;;31.62;33.04;99432.72;5054750;28;1101;-71
2022/08/10 14:09:04;;;;;;;;;;;;;;;31.88;33.09;99439.59;5054682;28;1910;-68
2022/08/10 14:11:31;;;;;;;;;;;;;;;31.84;32.56;99428.50;5054690;28;831;-70
2022/08/10 14:13:58;;;;;;;;;;;;;;;31.74;33.00;99441.75;5054696;28;960;-68
2022/08/10 14:16:25;;;;;;;;;;;;;;;31.71;33.21;99445.75;5054609;28;902;-69
2022/08/10 14:18:55;;;;;;;;;;;;;;;31.49;33.30;99444.22;5036707;28;1291;-68
2022/08/10 14:21:21;;;;;;;;;;;;;;;31.09;34.15;99452.97;5036306;28;1145;-68
2022/08/10 14:23:48;;;;;;;;;;;;;;;30.78;34.60;99440.41;5054383;28;867;-68
2022/08/10 14:26:17;;;;;;;;;;;;;;;30.65;35.10;99441.97;5054349;28;848;-69
2022/08/10 14:28:45;;;;;;;;;;;;;;;30.78;34.79;99438.31;5054303;28;1886;-70
2022/08/10 14:31:14;;;;;;;;;;;;;;;30.65;35.17;99441.19;5054371;28;820;-72
2022/08/10 14:33:46;;;;;;;;;;;;;;;30.35;35.32;99450.16;5054270;28;879;-68
2022/08/10 14:36:16;;;;;;;;;;;;;;;30.05;36.02;99434.13;5054480;28;910;-69
2022/08/10 14:38:43;;;;;;;;;;;;;;;29.96;36.20;99443.88;5054119;28;886;-67
2022/08/10 14:41:31;;;;;;;;;;;;;;;29.87;35.69;99467.84;5054216;28;898;-67
2022/08/10 14:44:02;;;;;;;;;;;;;;;29.71;36.14;99455.44;5053202;28;1520;-69
2022/08/10 14:46:28;;;;;;;;;;;;;;;29.80;35.88;99462.78;5036151;28;1212;-70
2022/08/10 14:48:55;;;;;;;;;;;;;;;29.91;35.86;99456.91;5053420;28;1890;-68
2022/08/10 14:51:25;;;;;;;;;;;;;;;30.00;35.87;99457.78;5054146;28;887;-69
2022/08/10 14:53:53;;;;;;;;;;;;;;;29.80;36.00;99447.78;5053882;28;879;-69
2022/08/10 14:56:24;;;;;;;;;;;;;;;29.65;35.79;99445.44;5053756;28;808;-72
2022/08/10 14:58:56;;;;;;;;;;;;;;;29.44;35.92;99442.44;5053923;28;871;-68
2022/08/10 15:01:22;;;;;;;;;;;;;;;29.41;35.95;99449.97;5035691;28;1354;-69
2022/08/10 15:03:51;;;;;;;;;;;;;;;29.41;35.97;99446.38;5053776;28;848;-69
2022/08/10 15:06:19;;;;;;;;;;;;;;;29.54;36.13;99445.63;5053686;28;855;-70
2022/08/10 15:08:46;;;;;;;;;;;;;;;29.64;35.74;99432.53;5053549;28;1906;-68
2022/08/10 15:11:12;;;;;;;;;;;;;;;29.71;35.69;99446.13;5035704;28;1342;-67
2022/08/10 15:13:43;;;;;;;;;;;;;;;29.67;35.44;99439.97;5052895;28;887;-73
2022/08/10 15:16:09;;;;;;;;;;;;;;;29.61;35.66;99434.34;5035333;28;1229;-69
2022/08/10 15:18:45;;;;;;;;;;;;;;;29.65;35.50;99439.75;5053452;28;950;-69
2022/08/10 15:21:11;;;;;;;;;;;;;;;29.47;35.81;99439.28;5053461;28;804;-68
2022/08/10 15:23:43;;;;;;;;;;;;;;;29.48;36.09;99437.19;5053348;28;812;-68
2022/08/10 15:26:10;;;;;;;;;;;;;;;29.31;36.18;99428.94;5053248;28;836;-68
2022/08/10 15:28:41;;;;;;;;;;;;;;;29.39;36.45;99434.75;5053165;28;1881;-66
2022/08/10 15:31:08;;;;;;;;;;;;;;;29.40;35.88;99419.97;5053233;28;824;-67
2022/08/10 15:39:09;;;;;;;;;;;;;;;29.64;35.83;99441.06;5053451;28;634;-71
2022/08/10 15:41:35;;;;;;;;;;;;;;;29.24;36.27;99433.19;5053050;28;891;-67
2022/08/10 15:44:01;;;;;;;;;;;;;;;28.81;36.92;99422.69;5053057;28;851;-72
2022/08/10 15:46:32;;;;;;;;;;;;;;;28.40;37.83;99432.25;5053120;28;880;-68
2022/08/10 15:49:00;;;;;;;;;;;;;;;28.20;37.97;99430.69;5052870;28;1943;-68
2022/08/10 15:51:28;;;;;;;;;;;;;;;28.12;38.69;99437.50;5052870;28;890;-67
2022/08/10 15:53:59;;;;;;;;;;;;;;;28.04;38.49;99449.47;5052659;28;851;-68
2022/08/10 15:56:28;;;;;;;;;;;;;;;27.97;39.08;99435.06;5035029;28;1448;-68
2022/08/10 15:59:00;;;;;;;;;;;;;;;27.91;39.05;99426.63;5034843;28;1228;-71
2022/08/10 16:01:33;;;;;;;;;;;;;;;27.72;39.33;99434.25;5034575;28;1217;-67
2022/08/10 16:04:01;;;;;;;;;;;;;;;27.62;39.72;99434.63;5052742;28;883;-67
2022/08/10 16:06:29;;;;;;;;;;;;;;;27.51;39.97;99425.44;5052602;28;870;-68
2022/08/10 16:09:03;;;;;;;;;;;;;;;27.42;40.38;99435.84;5052419;28;1997;-66
2022/08/10 16:11:35;;;;;;;;;;;;;;;27.35;40.25;99432.78;5052766;28;852;-67
2022/08/10 16:14:04;;;;;;;;;;;;;;;27.28;40.00;99428.47;5052330;28;927;-67
2022/08/10 16:16:33;;;;;;;;;;;;;;;27.18;40.35;99436.50;5052539;28;891;-68
2022/08/10 16:19:01;;;;;;;;;;;;;;;27.16;40.49;99438.31;5052278;28;898;-69
2022/08/10 16:21:27;;;;;;;;;;;;;;;27.05;40.27;99442.78;5052609;28;860;-68
2022/08/10 16:23:55;;;;;;;;;;;;;;;26.95;40.46;99446.44;5051144;28;808;-70
2022/08/10 16:26:32;;;;;;;;;;;;;;;26.81;40.81;99439.84;5034486;28;1077;-71
2022/08/10 16:29:04;;;;;;;;;;;;;;;26.72;41.55;99460.00;5052300;28;1890;-69
2022/08/10 16:31:31;;;;;;;;;;;;;;;26.59;41.79;99452.84;5052268;28;808;-68
2022/08/10 16:33:58;;;;;;;;;;;;;;;26.46;41.96;99446.97;5052126;28;843;-71
2022/08/10 16:36:36;;;;;;;;;;;;;;;26.37;42.20;99450.88;5052062;28;863;-68
2022/08/10 16:39:03;;;;;;;;;;;;;;;26.27;42.40;99455.28;5051969;28;863;-68
2022/08/10 16:41:29;;;;;;;;;;;;;;;26.16;42.37;99446.78;5051880;28;876;-66
2022/08/10 16:43:56;;;;;;;;;;;;;;;26.08;42.81;99443.75;5051950;28;859;-65
2022/08/10 16:46:22;;;;;;;;;;;;;;;25.96;42.83;99445.81;5051745;28;864;-66
2022/08/10 16:48:50;;;;;;;;;;;;;;;25.85;42.91;99465.63;5051991;28;1958;-67
2022/08/10 16:51:18;;;;;;;;;;;;;;;25.76;43.42;99454.59;5051758;28;856;-67
2022/08/10 16:53:46;;;;;;;;;;;;;;;25.67;43.55;99456.41;5051605;28;888;-66
2022/08/10 16:56:12;;;;;;;;;;;;;;;25.57;43.81;99455.13;5051826;28;832;-66
2022/08/10 16:58:39;;;;;;;;;;;;;;;25.46;43.54;99455.13;5051653;28;816;-66
2022/08/10 17:01:17;;;;;;;;;;;;;;;25.42;43.72;99458.22;5051916;28;1149;-68
2022/08/10 17:03:46;;;;;;;;;;;;;;;25.38;43.69;99469.00;5051672;28;821;-71
2022/08/10 17:06:17;;;;;;;;;;;;;;;25.33;43.53;99455.63;5051531;28;848;-67
2022/08/10 17:08:45;;;;;;;;;;;;;;;25.25;43.90;99461.03;5051452;28;1956;-68
2022/08/10 17:11:15;;;;;;;;;;;;;;;25.15;44.03;99445.56;5051503;28;836;-66
2022/08/10 17:13:41;;;;;;;;;;;;;;;25.13;44.03;99459.44;5051358;28;879;-65
2022/08/10 17:16:09;;;;;;;;;;;;;;;25.05;44.40;99464.84;5051500;28;792;-66
2022/08/10 17:18:39;;;;;;;;;;;;;;;24.96;44.69;99447.31;5033508;28;1331;-69
2022/08/10 17:21:06;;;;;;;;;;;;;;;24.91;44.62;99473.53;5033453;28;1208;-66
2022/08/10 17:23:34;;;;;;;;;;;;;;;24.83;44.79;99461.94;5051286;28;859;-66
2022/08/10 17:26:01;;;;;;;;;;;;;;;24.74;45.19;99467.84;5033438;28;1212;-68
2022/08/10 17:28:28;;;;;;;;;;;;;;;24.67;45.46;99462.69;5051450;28;1894;-66
2022/08/10 17:30:59;;;;;;;;;;;;;;;24.60;45.76;99452.63;5051337;28;894;-66
2022/08/10 17:33:27;;;;;;;;;;;;;;;24.49;45.77;99467.47;5051636;28;807;-68
2022/08/10 17:35:53;;;;;;;;;;;;;;;24.48;46.07;99479.28;5053009;28;800;-67
2022/08/10 17:38:23;;;;;;;;;;;;;;;24.45;46.29;99478.22;5055471;28;847;-68
2022/08/10 17:40:53;;;;;;;;;;;;;;;24.42;46.60;99463.06;5055314;28;875;-69
2022/08/10 17:43:20;;;;;;;;;;;;;;;24.33;46.78;99476.63;5037480;28;1268;-67
2022/08/10 17:45:46;;;;;;;;;;;;;;;24.24;47.11;99480.44;5055248;28;855;-67
2022/08/10 17:48:13;;;;;;;;;;;;;;;24.14;47.55;99491.16;5055175;28;1889;-66
2022/08/10 17:50:40;;;;;;;;;;;;;;;24.11;47.93;99495.00;5054691;28;1134;-68
2022/08/10 17:53:13;;;;;;;;;;;;;;;24.04;48.49;99489.81;5055173;28;890;-68
2022/08/10 17:55:41;;;;;;;;;;;;;;;23.98;48.71;99486.97;5055095;28;859;-65
2022/08/10 17:58:11;;;;;;;;;;;;;;;23.91;49.06;99503.59;5054954;28;872;-66
2022/08/10 18:00:42;;;;;;;;;;;;;;;23.87;49.15;99506.63;5055304;28;1137;-68
2022/08/10 18:03:31;;;;;;;;;;;;;;;23.86;49.00;99507.91;5055005;28;1423;-67
2022/08/10 18:06:01;;;;;;;;;;;;;;;23.82;49.45;99513.78;5055128;28;820;-68
2022/08/10 18:08:30;;;;;;;;;;;;;;;23.81;49.33;99520.72;5054691;28;1972;-65
2022/08/10 18:10:57;;;;;;;;;;;;;;;23.71;49.82;99522.13;5054806;28;823;-66
2022/08/10 18:13:24;;;;;;;;;;;;;;;23.70;49.83;99516.97;5054652;28;906;-67
2022/08/10 18:15:52;;;;;;;;;;;;;;;23.67;49.58;99518.00;5054651;28;1157;-68
2022/08/10 18:18:21;;;;;;;;;;;;;;;23.60;49.83;99531.28;5036973;28;1367;-66
2022/08/10 18:20:51;;;;;;;;;;;;;;;23.54;49.77;99529.69;5054674;28;812;-70
2022/08/10 18:23:26;;;;;;;;;;;;;;;23.52;49.72;99532.22;5054454;28;863;-66
2022/08/10 18:26:08;;;;;;;;;;;;;;;23.41;49.92;99538.53;5054607;28;804;-67
2022/08/10 18:28:37;;;;;;;;;;;;;;;23.33;50.25;99532.56;5054335;28;1882;-66
2022/08/10 18:31:32;;;;;;;;;;;;;;;23.30;49.96;99533.56;5036535;28;1236;-67
2022/08/10 18:33:58;;;;;;;;;;;;;;;23.22;49.93;99530.41;5054388;28;1139;-69
2022/08/10 18:36:27;;;;;;;;;;;;;;;23.17;50.11;99541.59;5036393;28;1167;-68
2022/08/10 18:38:56;;;;;;;;;;;;;;;23.13;50.49;99543.88;5054309;28;812;-68
2022/08/10 18:41:34;;;;;;;;;;;;;;;23.06;50.37;99530.97;5036394;28;1495;-68
2022/08/10 18:47:21;;;;;;;;;;;;;;;22.94;50.69;99549.03;5053067;28;666;-65
2022/08/10 18:50:14;;;;;;;;;;;;;;;22.88;51.00;99537.69;5053999;28;824;-68
2022/08/10 18:52:42;;;;;;;;;;;;;;;22.82;51.35;99546.06;5050576;28;1073;-69
2022/08/10 18:58:14;;;;;;;;;;;;;;;22.64;51.42;99543.53;5054024;28;674;-68
2022/08/10 19:00:56;;;;;;;;;;;;;;;22.60;51.67;99540.91;5054291;28;977;-66
2022/08/10 19:03:24;;;;;;;;;;;;;;;22.56;51.40;99543.16;5033863;28;1022;-68
2022/08/10 19:05:58;;;;;;;;;;;;;;;22.54;51.34;99542.13;5033874;28;863;-68
2022/08/10 19:08:41;;;;;;;;;;;;;;;22.54;51.33;99534.44;5015956;28;1970;-67
2022/08/10 19:11:34;;;;;;;;;;;;;;;22.47;51.54;99539.69;5015993;28;1213;-67
2022/08/10 19:26:36;;;;;;;;;;;;;;;22.20;52.61;99521.91;5033460;28;957;-72
2022/08/10 19:29:31;;;;;;;;;;;;;;;22.15;52.57;99525.44;5033351;28;1969;-68
2022/08/10 19:32:08;;;;;;;;;;;;;;;22.07;52.74;99527.88;5033521;28;856;-69
2022/08/10 19:34:37;;;;;;;;;;;;;;;21.98;53.29;99534.38;5015607;28;1196;-69
2022/08/10 19:37:09;;;;;;;;;;;;;;;21.92;53.43;99529.94;5015603;28;1181;-70
2022/08/10 19:39:35;;;;;;;;;;;;;;;21.88;53.40;99537.81;5033119;28;868;-68
2022/08/10 19:42:10;;;;;;;;;;;;;;;21.86;53.62;99529.84;5033182;28;804;-68
2022/08/10 19:44:49;;;;;;;;;;;;;;;21.78;54.10;99518.19;5033103;28;863;-70
2022/08/10 19:47:20;;;;;;;;;;;;;;;21.79;53.90;99533.81;5032997;28;1983;-72
2022/08/10 19:50:10;;;;;;;;;;;;;;;21.68;54.47;99535.66;5032873;28;885;-69
2022/08/10 19:53:04;;;;;;;;;;;;;;;21.58;54.54;99526.56;5033187;28;899;-68
2022/08/10 19:55:42;;;;;;;;;;;;;;;21.47;54.81;99524.34;5015251;28;1173;-67
2022/08/10 19:58:40;;;;;;;;;;;;;;;21.48;54.78;99527.94;5014862;28;1153;-71
2022/08/10 20:01:07;;;;;;;;;;;;;;;21.47;54.90;99537.63;4991128;28;1411;-68
2022/08/10 20:03:40;;;;;;;;;;;;;;;21.41;55.00;99538.28;5052841;28;899;-67
2022/08/10 20:06:22;;;;;;;;;;;;;;;21.36;55.29;99526.94;5052554;28;828;-69
2022/08/10 20:09:08;;;;;;;;;;;;;;;21.29;55.79;99549.78;5052797;28;1918;-66
2022/08/10 20:11:46;;;;;;;;;;;;;;;21.22;56.08;99525.66;5035114;28;1299;-71
2022/08/10 20:14:31;;;;;;;;;;;;;;;21.14;56.39;99522.44;5052412;28;887;-70
2022/08/10 20:17:06;;;;;;;;;;;;;;;21.08;56.76;99541.25;5052731;28;832;-67
2022/08/10 20:19:34;;;;;;;;;;;;;;;20.97;57.02;99536.19;5052247;28;883;-68
2022/08/10 20:22:06;;;;;;;;;;;;;;;20.89;57.25;99540.63;5052517;28;939;-69
2022/08/10 20:36:55;;;;;;;;;;;;;;;20.46;59.00;99525.91;5052383;28;623;-68
2022/08/10 20:39:50;;;;;;;;;;;;;;;20.45;58.90;99523.56;5034024;28;1027;-69
2022/08/10 20:42:39;;;;;;;;;;;;;;;20.43;59.25;99531.69;5051990;28;1000;-66
2022/08/10 21:00:19;;;;;;;;;;;;;;;20.05;60.83;99556.34;5051744;28;678;-69
2022/08/10 21:03:04;;;;;;;;;;;;;;;19.97;60.96;99572.75;5033531;28;1255;-67
2022/08/10 21:05:52;;;;;;;;;;;;;;;19.82;61.60;99569.03;5051990;28;816;-68
2022/08/10 21:08:34;;;;;;;;;;;;;;;19.75;61.93;99577.81;5051674;28;2256;-68
2022/08/10 21:11:21;;;;;;;;;;;;;;;19.72;62.32;99587.94;5051162;28;852;-70
2022/08/10 21:14:01;;;;;;;;;;;;;;;19.69;62.28;99572.00;5051406;28;907;-67
2022/08/10 21:16:29;;;;;;;;;;;;;;;19.61;62.45;99579.22;5051549;28;820;-70
2022/08/10 21:22:05;;;;;;;;;;;;;;;19.45;63.21;99594.34;5051727;28;1055;-68
2022/08/10 22:51:23;;;;;;;;;;;;;;;18.75;66.58;99596.91;5054408;28;642;-68
2022/08/10 23:02:32;;;;;;;;;;;;;;;18.75;66.11;99582.91;5054475;28;678;-67
2022/08/10 23:05:23;;;;;;;;;;;;;;;18.76;66.08;99567.69;5053624;28;1428;-67
2022/08/10 23:07:57;;;;;;;;;;;;;;;18.72;65.97;99578.25;5053783;28;1985;-67
2022/08/10 23:22:40;;;;;;;;;;;;;;;18.63;65.94;99558.66;5053957;28;1001;-68
2022/08/10 23:25:18;;;;;;;;;;;;;;;18.63;65.80;99562.22;5053411;28;1055;-69
2022/08/10 23:27:57;;;;;;;;;;;;;;;18.60;65.73;99556.78;5053308;28;1926;-66
2022/08/10 23:30:36;;;;;;;;;;;;;;;18.65;65.75;99553.34;5053648;28;820;-69
2022/08/10 23:33:03;;;;;;;;;;;;;;;18.63;65.46;99551.03;5052652;28;870;-68
2022/08/10 23:35:51;;;;;;;;;;;;;;;18.65;65.44;99537.34;5053322;28;958;-69
2022/08/10 23:38:22;;;;;;;;;;;;;;;18.68;65.14;99544.03;5053269;28;1204;-66
2022/08/10 23:40:53;;;;;;;;;;;;;;;18.67;65.12;99546.06;5035259;28;1192;-67
2022/08/10 23:43:26;;;;;;;;;;;;;;;18.71;64.88;99543.09;5053125;28;859;-67
2022/08/10 23:45:57;;;;;;;;;;;;;;;18.73;64.81;99552.59;5052990;28;884;-68
2022/08/10 23:48:39;;;;;;;;;;;;;;;18.74;64.81;99556.94;5052959;28;1894;-68
2022/08/10 23:54:16;;;;;;;;;;;;;;;18.72;64.81;99555.88;5052976;28;669;-67
2022/08/10 23:56:45;;;;;;;;;;;;;;;18.70;64.88;99552.75;5034984;28;1132;-67
2022/08/10 23:59:15;;;;;;;;;;;;;;;18.71;64.64;99549.50;5034932;28;1185;-70
